Terminal Aerodrome Forecast
Issued by NWS North Platte, NE

Home | Current Version | Previous Version | Text Only | Print | Product List | Glossary Off
Versions: 1 2 3 4 5 6 7 8 9 10 11

201
FTUS43 KLBF 171120
TAFVTN
TAF
KVTN 171120Z 1712/1812 23005KT P6SM SKC
     FM171700 27009KT P6SM SKC
     FM172300 24007KT P6SM SKC=

USA.gov is the U.S. government's official web portal to all federal, state and local government web resources and services.